Time;durP1;ratioP1;P1;durP2;ratioP2;P2;SDS_P1;SDS_P2;PMS_P1;PMS_P2;Temp;Humidity;BMP_temperature;BMP_pressure;BME280_temperature;BME280_humidity;BME280_pressure;Samples;Min_cycle;Max_cycle;Signal;HPM_P1;HPM_P2
2023/01/24 00:01:40;;;;;;;15.35;3.50;;;;;;;;;;5052425;28;20032;-34
2023/01/24 00:04:07;;;;;;;17.45;2.92;;;;;;;;;;5052356;28;20562;-34
2023/01/24 00:06:34;;;;;;;24.17;3.88;;;;;;;;;;5052272;28;20037;-34
2023/01/24 00:09:01;;;;;;;18.35;3.22;;;;;;;;;;5052194;28;20029;-34
2023/01/24 00:11:28;;;;;;;19.52;3.83;;;;;;;;;;5052297;28;20021;-34
2023/01/24 00:13:55;;;;;;;20.23;3.38;;;;;;;;;;5052203;28;20017;-34
2023/01/24 00:16:22;;;;;;;17.35;3.20;;;;;;;;;;5052135;28;20041;-34
2023/01/24 00:18:50;;;;;;;25.95;3.75;;;;;;;;;;5052228;28;20033;-34
2023/01/24 00:21:18;;;;;;;16.25;3.53;;;;;;;;;;5056057;28;20035;-34
2023/01/24 00:23:49;;;;;;;21.90;3.60;;;;;;;;;;5055987;28;20025;-34
2023/01/24 00:26:17;;;;;;;16.13;3.60;;;;;;;;;;5055781;28;20079;-34
2023/01/24 00:28:46;;;;;;;22.13;3.60;;;;;;;;;;5055743;28;20029;-34
2023/01/24 00:31:13;;;;;;;15.55;3.28;;;;;;;;;;5055812;28;20033;-34
2023/01/24 00:33:40;;;;;;;17.15;3.65;;;;;;;;;;5055137;28;20068;-34
2023/01/24 00:36:08;;;;;;;19.77;3.17;;;;;;;;;;5055784;28;20079;-35
2023/01/24 00:38:35;;;;;;;17.65;3.83;;;;;;;;;;5055550;28;20021;-35
2023/01/24 00:41:02;;;;;;;14.15;3.33;;;;;;;;;;5055658;28;20052;-35
2023/01/24 00:43:29;;;;;;;18.42;3.53;;;;;;;;;;5055640;28;20368;-35
2023/01/24 00:45:56;;;;;;;22.08;3.65;;;;;;;;;;5055541;28;20021;-34
2023/01/24 00:48:23;;;;;;;22.70;3.30;;;;;;;;;;5055445;28;20484;-35
2023/01/24 00:50:50;;;;;;;18.30;3.42;;;;;;;;;;5055353;28;20131;-34
2023/01/24 00:53:19;;;;;;;17.05;3.30;;;;;;;;;;5055491;28;20048;-35
2023/01/24 00:55:46;;;;;;;18.27;3.42;;;;;;;;;;5055476;28;20383;-34
2023/01/24 00:58:14;;;;;;;15.25;3.80;;;;;;;;;;5055308;28;20025;-35
2023/01/24 01:00:41;;;;;;;21.13;3.90;;;;;;;;;;5055056;28;20044;-34
2023/01/24 01:03:15;;;;;;;23.23;4.20;;;;;;;;;;5055103;28;20024;-34
2023/01/24 01:05:42;;;;;;;17.45;3.55;;;;;;;;;;5055107;28;20413;-35
2023/01/24 01:08:10;;;;;;;14.50;3.92;;;;;;;;;;5055140;28;20064;-35
2023/01/24 01:10:37;;;;;;;16.33;4.28;;;;;;;;;;5055105;28;20048;-34
2023/01/24 01:13:05;;;;;;;17.85;4.03;;;;;;;;;;5055051;28;20028;-35
2023/01/24 01:15:32;;;;;;;15.27;3.65;;;;;;;;;;5054919;28;20079;-35
2023/01/24 01:17:59;;;;;;;23.33;4.40;;;;;;;;;;5054898;28;20033;-35
2023/01/24 01:20:29;;;;;;;14.82;3.45;;;;;;;;;;5054877;28;20123;-35
2023/01/24 01:22:56;;;;;;;21.00;4.68;;;;;;;;;;5054906;28;20087;-33
2023/01/24 01:25:23;;;;;;;16.13;3.67;;;;;;;;;;5054849;28;20033;-35
2023/01/24 01:27:50;;;;;;;14.85;3.88;;;;;;;;;;5054584;28;20029;-35
2023/01/24 01:30:17;;;;;;;21.67;3.88;;;;;;;;;;5054773;28;20459;-33
2023/01/24 01:32:44;;;;;;;20.60;4.30;;;;;;;;;;5054916;28;20454;-35
2023/01/24 01:35:11;;;;;;;19.20;3.85;;;;;;;;;;5054677;28;20024;-33
2023/01/24 01:37:38;;;;;;;21.40;3.78;;;;;;;;;;5054444;28;20029;-33
2023/01/24 01:40:05;;;;;;;18.38;3.25;;;;;;;;;;5054569;28;20108;-33
2023/01/24 01:42:45;;;;;;;20.83;3.67;;;;;;;;;;5054578;28;20522;-33
2023/01/24 01:45:31;;;;;;;28.15;4.22;;;;;;;;;;5054425;28;20430;-33
2023/01/24 01:47:58;;;;;;;19.42;3.67;;;;;;;;;;5054209;28;20475;-33
2023/01/24 01:50:28;;;;;;;20.73;3.80;;;;;;;;;;5054400;28;20116;-35
2023/01/24 01:52:55;;;;;;;13.77;3.45;;;;;;;;;;5054232;28;20083;-35
2023/01/24 01:55:24;;;;;;;22.58;3.45;;;;;;;;;;5054243;28;20025;-35
2023/01/24 01:57:52;;;;;;;14.15;3.45;;;;;;;;;;5054151;28;20025;-33
2023/01/24 02:00:20;;;;;;;14.27;3.40;;;;;;;;;;5053148;28;20052;-34
2023/01/24 02:02:50;;;;;;;15.98;3.70;;;;;;;;;;5053156;28;20033;-35
2023/01/24 02:05:19;;;;;;;18.08;3.45;;;;;;;;;;5053142;28;20028;-33
2023/01/24 02:07:53;;;;;;;12.95;2.75;;;;;;;;;;5052928;28;20029;-34
2023/01/24 02:10:22;;;;;;;13.32;3.03;;;;;;;;;;5052884;28;20040;-35
2023/01/24 02:12:50;;;;;;;16.88;3.17;;;;;;;;;;5053039;28;20025;-33
2023/01/24 02:18:05;;;;;;;13.30;2.25;;;;;;;;;;5053112;28;20040;-36
2023/01/24 02:20:39;;;;;;;12.68;2.65;;;;;;;;;;5052746;28;20395;-33
2023/01/24 02:23:20;;;;;;;13.73;2.80;;;;;;;;;;5052753;28;20031;-36
2023/01/24 02:26:08;;;;;;;7.60;2.45;;;;;;;;;;5052750;28;20021;-36
2023/01/24 02:28:35;;;;;;;16.02;2.80;;;;;;;;;;5052587;28;20029;-35
2023/01/24 02:31:03;;;;;;;11.52;2.63;;;;;;;;;;5052668;28;20048;-35
2023/01/24 02:33:30;;;;;;;10.82;3.20;;;;;;;;;;5052727;28;20035;-33
2023/01/24 02:36:12;;;;;;;13.75;2.40;;;;;;;;;;5052697;28;20020;-35
2023/01/24 02:38:40;;;;;;;10.88;2.40;;;;;;;;;;5052760;28;20368;-33
2023/01/24 02:41:07;;;;;;;13.85;2.70;;;;;;;;;;5052494;28;20025;-34
2023/01/24 02:43:43;;;;;;;15.88;2.78;;;;;;;;;;5051888;28;20033;-33
2023/01/24 02:46:10;;;;;;;16.88;3.05;;;;;;;;;;5052475;28;20499;-33
2023/01/24 02:48:37;;;;;;;16.23;2.13;;;;;;;;;;5052295;28;20037;-34
2023/01/24 02:53:50;;;;;;;12.90;2.33;;;;;;;;;;5052700;28;20151;-34
2023/01/24 02:59:01;;;;;;;10.48;2.20;;;;;;;;;;4962017;28;2589739;-34
2023/01/24 03:01:30;;;;;;;13.80;2.28;;;;;;;;;;5052944;28;20102;-34
2023/01/24 03:03:58;;;;;;;13.23;2.53;;;;;;;;;;5052972;28;20032;-34
2023/01/24 03:06:25;;;;;;;7.10;1.90;;;;;;;;;;5052653;28;20411;-34
2023/01/24 03:08:52;;;;;;;11.98;2.50;;;;;;;;;;5052891;28;20021;-34
2023/01/24 03:11:19;;;;;;;9.07;1.90;;;;;;;;;;5052791;28;20027;-34
2023/01/24 03:35:58;;;;;;;10.85;2.00;;;;;;;;;;5052800;28;20155;-34
2023/01/24 03:41:10;;;;;;;9.00;2.38;;;;;;;;;;5052531;28;20064;-34
2023/01/24 03:43:37;;;;;;;13.73;1.67;;;;;;;;;;5052467;28;20387;-34
2023/01/24 03:46:04;;;;;;;8.68;1.80;;;;;;;;;;5052366;28;20175;-34
2023/01/24 03:48:36;;;;;;;15.43;2.17;;;;;;;;;;5052228;28;20025;-34
2023/01/24 03:53:49;;;;;;;10.88;1.70;;;;;;;;;;5052844;28;20411;-34
2023/01/24 03:56:15;;;;;;;8.90;1.73;;;;;;;;;;5056388;28;20032;-34
2023/01/24 03:58:42;;;;;;;8.55;1.50;;;;;;;;;;5056206;28;20033;-34
2023/01/24 04:01:09;;;;;;;11.82;2.15;;;;;;;;;;5056433;28;20070;-34
2023/01/24 04:03:36;;;;;;;16.77;2.30;;;;;;;;;;5056377;28;20021;-34
2023/01/24 04:06:03;;;;;;;9.38;1.70;;;;;;;;;;5056198;28;20036;-34
2023/01/24 04:08:30;;;;;;;10.75;1.63;;;;;;;;;;5056155;28;20021;-34
2023/01/24 04:10:57;;;;;;;9.85;1.70;;;;;;;;;;5056387;28;20102;-33
2023/01/24 04:13:25;;;;;;;10.13;1.55;;;;;;;;;;5056059;28;20021;-34
2023/01/24 04:15:51;;;;;;;5.57;1.95;;;;;;;;;;5056122;28;20033;-34
2023/01/24 04:18:18;;;;;;;8.43;1.60;;;;;;;;;;5055942;28;20063;-34
2023/01/24 04:20:45;;;;;;;6.43;1.60;;;;;;;;;;5056052;28;20021;-34
2023/01/24 04:23:12;;;;;;;7.20;2.00;;;;;;;;;;5056005;28;20029;-34
2023/01/24 04:25:39;;;;;;;6.72;1.52;;;;;;;;;;5055974;28;20021;-34
2023/01/24 04:28:06;;;;;;;4.07;1.38;;;;;;;;;;5055739;28;20146;-34
2023/01/24 04:30:33;;;;;;;9.95;1.60;;;;;;;;;;5055866;28;20037;-34
2023/01/24 04:33:00;;;;;;;5.18;1.33;;;;;;;;;;5055815;28;20028;-34
2023/01/24 04:35:29;;;;;;;6.47;1.67;;;;;;;;;;5037813;28;20025;-34
2023/01/24 04:38:02;;;;;;;6.50;1.73;;;;;;;;;;5055538;28;20465;-34
2023/01/24 04:40:29;;;;;;;3.60;1.23;;;;;;;;;;5055695;28;20051;-34
2023/01/24 04:42:57;;;;;;;8.32;1.75;;;;;;;;;;5055628;28;20025;-34
2023/01/24 04:45:24;;;;;;;9.23;1.50;;;;;;;;;;5055439;28;20033;-34
2023/01/24 04:47:51;;;;;;;5.00;1.50;;;;;;;;;;5055317;28;20039;-34
2023/01/24 04:50:18;;;;;;;5.32;1.55;;;;;;;;;;5055457;28;20114;-34
2023/01/24 04:52:45;;;;;;;8.23;1.55;;;;;;;;;;5055407;28;20025;-33
2023/01/24 04:55:12;;;;;;;5.90;1.70;;;;;;;;;;5055384;28;20028;-34
2023/01/24 04:57:39;;;;;;;4.25;1.55;;;;;;;;;;5055119;28;20052;-34
2023/01/24 05:00:08;;;;;;;9.02;1.80;;;;;;;;;;5055078;28;20041;-34
2023/01/24 05:02:37;;;;;;;7.68;1.73;;;;;;;;;;5055170;28;20099;-33
2023/01/24 05:05:04;;;;;;;6.78;1.85;;;;;;;;;;5054722;28;20033;-34
2023/01/24 05:07:31;;;;;;;6.20;1.70;;;;;;;;;;5054975;28;20399;-33
2023/01/24 05:09:58;;;;;;;6.57;1.50;;;;;;;;;;5055049;28;20498;-33
2023/01/24 05:12:25;;;;;;;8.20;1.40;;;;;;;;;;5055058;28;20029;-33
2023/01/24 05:14:52;;;;;;;6.60;1.65;;;;;;;;;;5037131;28;20033;-33
2023/01/24 05:17:19;;;;;;;5.00;1.48;;;;;;;;;;5055107;28;20044;-33
2023/01/24 05:19:46;;;;;;;6.20;1.55;;;;;;;;;;5054837;28;20037;-34
2023/01/24 05:22:13;;;;;;;7.63;1.70;;;;;;;;;;5054877;28;20029;-34
2023/01/24 05:24:40;;;;;;;8.23;1.70;;;;;;;;;;5054914;28;20028;-33
2023/01/24 05:27:08;;;;;;;6.20;1.75;;;;;;;;;;5054704;28;20047;-34
2023/01/24 05:29:35;;;;;;;3.97;1.42;;;;;;;;;;5054704;28;20112;-34
2023/01/24 05:32:01;;;;;;;3.70;1.48;;;;;;;;;;5054695;28;20029;-34
2023/01/24 05:34:28;;;;;;;5.10;1.67;;;;;;;;;;5054619;28;20025;-34
2023/01/24 05:36:55;;;;;;;4.88;1.50;;;;;;;;;;5054542;28;20108;-34
2023/01/24 05:39:22;;;;;;;3.28;1.20;;;;;;;;;;5054609;28;20044;-33
2023/01/24 05:41:49;;;;;;;4.60;1.30;;;;;;;;;;5054491;28;20453;-34
2023/01/24 05:44:16;;;;;;;4.55;1.55;;;;;;;;;;5054514;28;20054;-34
2023/01/24 05:46:43;;;;;;;3.55;1.50;;;;;;;;;;5054103;28;20482;-33
2023/01/24 05:49:10;;;;;;;5.05;1.52;;;;;;;;;;5054338;28;20124;-34
2023/01/24 05:51:37;;;;;;;4.13;1.60;;;;;;;;;;5054314;28;20394;-33
2023/01/24 05:54:04;;;;;;;6.05;1.70;;;;;;;;;;5054334;28;20017;-33
2023/01/24 05:56:31;;;;;;;5.80;1.50;;;;;;;;;;5054169;28;20188;-33
2023/01/24 05:59:00;;;;;;;2.80;1.25;;;;;;;;;;5053996;28;20128;-34
2023/01/24 06:01:27;;;;;;;2.70;1.13;;;;;;;;;;5045462;28;20376;-34
2023/01/24 06:03:54;;;;;;;4.75;1.70;;;;;;;;;;5033942;28;20025;-34
2023/01/24 06:06:23;;;;;;;4.45;1.20;;;;;;;;;;5034071;28;20041;-34
2023/01/24 06:08:50;;;;;;;4.85;1.60;;;;;;;;;;5034118;28;20029;-33
2023/01/24 06:11:22;;;;;;;6.30;1.48;;;;;;;;;;5033910;28;20087;-34
2023/01/24 06:13:49;;;;;;;4.03;1.20;;;;;;;;;;5034032;28;20028;-33
2023/01/24 06:16:17;;;;;;;4.70;1.50;;;;;;;;;;5033528;28;20080;-34
2023/01/24 06:18:45;;;;;;;5.30;1.50;;;;;;;;;;5033525;28;20514;-34
2023/01/24 06:21:30;;;;;;;3.05;1.30;;;;;;;;;;5033680;28;20030;-34
2023/01/24 06:23:57;;;;;;;4.40;1.45;;;;;;;;;;5033743;28;20421;-33
2023/01/24 06:26:24;;;;;;;6.28;1.50;;;;;;;;;;5033609;28;20044;-34
2023/01/24 06:28:51;;;;;;;4.95;1.48;;;;;;;;;;5033638;28;20109;-33
2023/01/24 06:31:24;;;;;;;5.43;1.63;;;;;;;;;;5033714;28;20040;-34
2023/01/24 06:34:09;;;;;;;3.78;1.20;;;;;;;;;;5033642;28;20029;-34
2023/01/24 06:36:39;;;;;;;2.97;1.15;;;;;;;;;;5033475;28;20548;-34
2023/01/24 06:39:11;;;;;;;4.80;1.17;;;;;;;;;;5033685;28;20389;-34
2023/01/24 06:41:38;;;;;;;4.32;1.48;;;;;;;;;;5033356;28;20442;-34
2023/01/24 06:44:05;;;;;;;4.03;1.10;;;;;;;;;;5033434;28;20091;-34
2023/01/24 06:46:32;;;;;;;3.97;1.40;;;;;;;;;;5033221;28;20381;-34
2023/01/24 06:48:59;;;;;;;5.13;1.35;;;;;;;;;;5015623;28;20381;-34
2023/01/24 06:51:26;;;;;;;5.38;1.60;;;;;;;;;;5033321;28;20025;-34
2023/01/24 06:53:53;;;;;;;7.38;1.40;;;;;;;;;;5033157;28;20057;-34
2023/01/24 06:56:20;;;;;;;2.65;1.00;;;;;;;;;;5033161;28;20108;-34
2023/01/24 06:58:47;;;;;;;2.22;1.15;;;;;;;;;;5015269;28;20053;-34
2023/01/24 07:01:14;;;;;;;3.65;1.02;;;;;;;;;;5033071;28;20068;-34
2023/01/24 07:03:41;;;;;;;2.72;1.10;;;;;;;;;;5033153;28;20022;-34
2023/01/24 07:06:08;;;;;;;3.30;1.33;;;;;;;;;;5032847;28;20476;-34
2023/01/24 07:08:35;;;;;;;3.60;1.55;;;;;;;;;;5033061;28;20026;-36
2023/01/24 07:11:02;;;;;;;4.95;1.30;;;;;;;;;;5166567;23;20056;-35
2023/01/24 07:13:29;;;;;;;3.28;1.17;;;;;;;;;;5032959;28;20422;-35
2023/01/24 07:15:55;;;;;;;6.25;1.25;;;;;;;;;;5032986;28;20030;-35
2023/01/24 07:18:22;;;;;;;3.78;1.35;;;;;;;;;;5032902;28;20025;-35
2023/01/24 07:20:50;;;;;;;3.22;1.05;;;;;;;;;;5032828;28;20124;-35
2023/01/24 07:23:19;;;;;;;3.60;1.38;;;;;;;;;;5032873;28;20032;-35
2023/01/24 07:25:47;;;;;;;3.78;1.50;;;;;;;;;;5032883;28;20099;-35
2023/01/24 07:28:14;;;;;;;3.38;1.55;;;;;;;;;;5032596;28;20037;-35
2023/01/24 07:30:40;;;;;;;3.22;1.30;;;;;;;;;;5032709;28;20101;-35
2023/01/24 07:33:07;;;;;;;3.90;1.00;;;;;;;;;;5032729;28;20026;-35
2023/01/24 07:35:34;;;;;;;3.35;1.30;;;;;;;;;;5032571;28;20033;-35
2023/01/24 07:38:01;;;;;;;3.50;1.10;;;;;;;;;;5032633;28;20036;-35
2023/01/24 07:40:28;;;;;;;2.65;1.17;;;;;;;;;;5032437;28;20029;-35
2023/01/24 07:42:55;;;;;;;4.45;1.60;;;;;;;;;;5032597;28;20030;-35
2023/01/24 07:45:22;;;;;;;3.50;1.58;;;;;;;;;;5032554;28;20095;-35
2023/01/24 07:47:49;;;;;;;2.60;1.00;;;;;;;;;;5032667;28;20076;-35
2023/01/24 07:50:16;;;;;;;3.58;1.30;;;;;;;;;;5032671;28;20034;-35
2023/01/24 07:52:43;;;;;;;3.22;1.10;;;;;;;;;;5032552;28;20387;-35
2023/01/24 07:55:10;;;;;;;2.75;1.23;;;;;;;;;;5032543;28;20041;-35
2023/01/24 07:57:37;;;;;;;3.42;1.20;;;;;;;;;;5032533;28;20030;-35
2023/01/24 08:00:04;;;;;;;2.63;1.30;;;;;;;;;;5032322;28;20088;-35
2023/01/24 08:02:31;;;;;;;3.08;1.27;;;;;;;;;;5032478;28;20056;-35
2023/01/24 08:04:58;;;;;;;3.45;1.45;;;;;;;;;;5032437;28;20511;-35
2023/01/24 08:07:26;;;;;;;2.50;1.20;;;;;;;;;;5032327;28;20048;-35
2023/01/24 08:09:53;;;;;;;2.50;1.20;;;;;;;;;;5032100;28;20045;-35
2023/01/24 08:12:20;;;;;;;3.08;1.10;;;;;;;;;;5032264;28;20491;-35
2023/01/24 08:14:47;;;;;;;2.95;1.20;;;;;;;;;;5032300;28;20383;-35
2023/01/24 08:17:14;;;;;;;2.63;1.20;;;;;;;;;;5032304;28;20037;-35
2023/01/24 08:19:41;;;;;;;2.92;1.20;;;;;;;;;;5032183;28;20030;-35
2023/01/24 08:22:08;;;;;;;3.40;1.33;;;;;;;;;;5032243;28;20561;-35
2023/01/24 08:24:35;;;;;;;2.85;1.05;;;;;;;;;;5032474;28;20052;-35
2023/01/24 08:27:02;;;;;;;3.78;1.30;;;;;;;;;;5032115;28;20038;-35
2023/01/24 08:29:29;;;;;;;3.03;1.02;;;;;;;;;;5032131;28;20030;-35
2023/01/24 08:31:56;;;;;;;2.33;1.08;;;;;;;;;;5032186;28;20040;-35
2023/01/24 08:34:23;;;;;;;2.85;1.10;;;;;;;;;;5032170;28;20022;-35
2023/01/24 08:36:50;;;;;;;2.55;1.13;;;;;;;;;;5032615;28;20373;-35
2023/01/24 08:39:17;;;;;;;4.00;1.20;;;;;;;;;;5032014;28;20022;-35
2023/01/24 08:41:46;;;;;;;3.17;1.20;;;;;;;;;;5035211;28;20033;-35
2023/01/24 08:44:16;;;;;;;2.60;1.00;;;;;;;;;;5035636;28;20078;-35
2023/01/24 08:46:43;;;;;;;2.13;1.20;;;;;;;;;;5035613;28;20048;-35
2023/01/24 08:49:11;;;;;;;2.30;1.17;;;;;;;;;;5035495;28;20076;-35
2023/01/24 08:51:38;;;;;;;3.90;1.42;;;;;;;;;;5035596;28;20433;-35
2023/01/24 08:54:06;;;;;;;4.10;1.13;;;;;;;;;;5035555;28;20021;-35
2023/01/24 08:56:32;;;;;;;1.80;1.08;;;;;;;;;;5035421;28;20029;-35
2023/01/24 08:58:59;;;;;;;2.60;1.00;;;;;;;;;;5035366;28;20391;-36
2023/01/24 09:01:26;;;;;;;2.80;1.30;;;;;;;;;;5035234;28;20036;-35
2023/01/24 09:03:59;;;;;;;1.98;0.88;;;;;;;;;;5035276;28;20079;-35
2023/01/24 09:06:26;;;;;;;4.65;1.05;;;;;;;;;;5035178;28;20038;-35
2023/01/24 09:08:54;;;;;;;1.60;0.80;;;;;;;;;;5035224;28;20115;-35
2023/01/24 09:11:22;;;;;;;3.10;1.02;;;;;;;;;;5034983;28;20137;-35
2023/01/24 09:13:49;;;;;;;3.00;1.10;;;;;;;;;;5035109;28;20095;-35
2023/01/24 09:16:16;;;;;;;1.88;0.77;;;;;;;;;;5035171;28;20053;-35
2023/01/24 09:18:43;;;;;;;2.42;1.02;;;;;;;;;;5035105;28;20032;-35
2023/01/24 09:21:10;;;;;;;1.38;0.60;;;;;;;;;;5034981;28;20064;-35
2023/01/24 09:23:37;;;;;;;4.53;1.05;;;;;;;;;;5034934;28;20036;-35
2023/01/24 09:26:04;;;;;;;1.90;0.77;;;;;;;;;;5034895;28;20511;-35
2023/01/24 09:28:33;;;;;;;4.50;1.10;;;;;;;;;;5034895;28;20105;-35
2023/01/24 09:31:01;;;;;;;3.10;0.98;;;;;;;;;;5034668;28;20559;-35
2023/01/24 09:33:28;;;;;;;2.47;0.88;;;;;;;;;;5034889;28;20117;-35
2023/01/24 09:35:56;;;;;;;1.95;0.95;;;;;;;;;;5034610;28;20025;-35
2023/01/24 09:38:24;;;;;;;2.28;0.90;;;;;;;;;;5034646;28;20032;-35
2023/01/24 09:41:09;;;;;;;2.33;0.75;;;;;;;;;;5034460;28;20120;-35
2023/01/24 09:43:59;;;;;;;1.95;0.80;;;;;;;;;;5034628;28;20026;-35
2023/01/24 09:46:29;;;;;;;1.70;0.80;;;;;;;;;;5034454;28;20042;-35
2023/01/24 09:49:08;;;;;;;1.67;0.70;;;;;;;;;;5034468;28;20021;-36
2023/01/24 09:51:37;;;;;;;1.83;0.90;;;;;;;;;;5033436;28;20025;-35
2023/01/24 09:54:05;;;;;;;2.30;1.08;;;;;;;;;;5034415;28;20487;-35
2023/01/24 09:56:37;;;;;;;2.55;1.08;;;;;;;;;;5034248;28;20534;-35
2023/01/24 09:59:11;;;;;;;1.33;0.67;;;;;;;;;;5034214;28;20100;-35
2023/01/24 10:01:40;;;;;;;1.15;0.65;;;;;;;;;;5034243;28;20427;-35
2023/01/24 10:04:29;;;;;;;1.75;0.90;;;;;;;;;;5034458;28;20026;-35
2023/01/24 10:07:15;;;;;;;1.85;0.80;;;;;;;;;;5021771;28;20084;-35
2023/01/24 10:09:48;;;;;;;1.63;0.73;;;;;;;;;;5033869;28;20151;-35
2023/01/24 10:12:31;;;;;;;4.45;1.15;;;;;;;;;;5034101;28;20033;-35
2023/01/24 10:15:10;;;;;;;1.60;0.88;;;;;;;;;;5034023;28;20022;-35
2023/01/24 10:17:43;;;;;;;1.73;0.93;;;;;;;;;;5033879;28;20029;-35
2023/01/24 10:20:34;;;;;;;1.50;0.68;;;;;;;;;;5033959;28;20557;-35
2023/01/24 10:23:04;;;;;;;1.50;0.70;;;;;;;;;;5033827;28;20025;-35
2023/01/24 10:25:38;;;;;;;1.33;0.77;;;;;;;;;;5033889;28;20101;-35
2023/01/24 10:28:05;;;;;;;2.08;0.80;;;;;;;;;;5033793;28;20391;-35
2023/01/24 10:30:41;;;;;;;2.17;0.90;;;;;;;;;;5033767;28;20033;-35
2023/01/24 10:33:15;;;;;;;1.50;0.73;;;;;;;;;;5033689;28;20147;-35
2023/01/24 10:35:52;;;;;;;2.15;0.88;;;;;;;;;;5033593;28;20037;-35
2023/01/24 10:38:19;;;;;;;1.20;0.60;;;;;;;;;;5033553;28;20629;-35
2023/01/24 10:40:50;;;;;;;1.58;0.70;;;;;;;;;;5033521;28;20029;-35
2023/01/24 10:43:17;;;;;;;2.15;0.90;;;;;;;;;;5033794;28;20414;-35
2023/01/24 10:45:52;;;;;;;2.72;0.80;;;;;;;;;;5033390;28;20044;-35
2023/01/24 10:48:19;;;;;;;1.95;0.80;;;;;;;;;;5034013;28;20033;-35
2023/01/24 10:50:46;;;;;;;1.65;0.85;;;;;;;;;;5033300;28;20025;-35
2023/01/24 10:53:24;;;;;;;3.03;0.98;;;;;;;;;;5033410;28;20478;-35
2023/01/24 10:55:57;;;;;;;2.00;0.90;;;;;;;;;;5033434;28;20028;-35
2023/01/24 10:58:26;;;;;;;1.77;1.00;;;;;;;;;;5033308;28;20029;-35
2023/01/24 11:00:59;;;;;;;2.53;1.00;;;;;;;;;;5033152;28;20051;-35
2023/01/24 11:03:32;;;;;;;1.98;0.80;;;;;;;;;;5032858;28;20025;-35
2023/01/24 11:05:59;;;;;;;2.72;0.88;;;;;;;;;;5033099;28;20037;-35
2023/01/24 11:08:27;;;;;;;1.83;0.77;;;;;;;;;;5033077;28;20563;-35
2023/01/24 11:10:55;;;;;;;1.95;0.82;;;;;;;;;;5032818;28;20124;-35
2023/01/24 11:13:31;;;;;;;2.10;0.80;;;;;;;;;;5033215;28;20391;-35
2023/01/24 11:16:19;;;;;;;2.85;0.90;;;;;;;;;;5033012;28;20483;-35
2023/01/24 11:18:52;;;;;;;1.98;0.90;;;;;;;;;;5032876;28;20025;-36
2023/01/24 11:21:20;;;;;;;1.95;0.85;;;;;;;;;;5032888;28;20021;-35
2023/01/24 11:23:59;;;;;;;3.75;0.90;;;;;;;;;;5032868;28;20441;-35
2023/01/24 11:26:26;;;;;;;1.95;0.60;;;;;;;;;;5032818;28;20108;-35
2023/01/24 11:29:16;;;;;;;1.65;0.60;;;;;;;;;;5032664;28;20034;-35
2023/01/24 11:31:48;;;;;;;1.20;0.73;;;;;;;;;;5020459;28;20048;-35
2023/01/24 11:34:14;;;;;;;;;;;;;;;;;;5033173;28;20021;-35
2023/01/24 11:37:04;;;;;;;1.35;0.80;;;;;;;;;;5032756;28;19937;-34
2023/01/24 11:39:34;;;;;;;1.85;0.65;;;;;;;;;;5032492;28;20487;-35
2023/01/24 11:42:21;;;;;;;1.38;0.70;;;;;;;;;;5032605;28;20117;-35
2023/01/24 11:44:54;;;;;;;0.70;0.50;;;;;;;;;;5032647;28;20026;-35
2023/01/24 11:47:23;;;;;;;1.70;0.82;;;;;;;;;;5032509;28;20491;-35
2023/01/24 11:49:52;;;;;;;2.03;0.70;;;;;;;;;;5032554;28;20430;-35
2023/01/24 11:52:22;;;;;;;1.02;0.60;;;;;;;;;;5032567;28;20053;-35
2023/01/24 11:54:58;;;;;;;2.08;0.80;;;;;;;;;;5032521;28;20416;-35
2023/01/24 11:57:30;;;;;;;1.52;0.70;;;;;;;;;;5014818;28;20030;-35
2023/01/24 11:59:58;;;;;;;;;;;;;;;;;;5015195;28;20389;-35
2023/01/24 12:02:34;;;;;;;1.75;0.90;;;;;;;;;;5032711;28;19916;-35
2023/01/24 12:05:21;;;;;;;1.05;0.68;;;;;;;;;;5032444;28;20072;-35
2023/01/24 12:07:55;;;;;;;2.72;0.80;;;;;;;;;;4982854;28;20037;-35
2023/01/24 12:10:26;;;;;;;1.40;0.60;;;;;;;;;;5032119;28;20454;-35
2023/01/24 12:13:04;;;;;;;1.70;0.70;;;;;;;;;;5032260;28;20118;-35
2023/01/24 12:15:39;;;;;;;1.52;0.90;;;;;;;;;;5033728;28;20083;-35
2023/01/24 12:18:12;;;;;;;1.20;0.70;;;;;;;;;;5036289;28;20487;-35
2023/01/24 12:20:59;;;;;;;0.85;0.52;;;;;;;;;;5036327;28;20029;-35
2023/01/24 12:23:38;;;;;;;1.55;0.60;;;;;;;;;;5036102;28;20055;-35
2023/01/24 12:26:11;;;;;;;1.13;0.60;;;;;;;;;;5036108;28;20479;-35
2023/01/24 12:28:49;;;;;;;1.75;0.68;;;;;;;;;;5036187;28;20087;-36
2023/01/24 12:31:19;;;;;;;2.33;0.60;;;;;;;;;;5035972;28;20567;-35
2023/01/24 12:33:59;;;;;;;1.40;0.70;;;;;;;;;;5035990;28;20036;-35
2023/01/24 12:37:01;;;;;;;1.52;0.70;;;;;;;;;;5035963;28;20484;-35
2023/01/24 12:39:35;;;;;;;1.77;0.70;;;;;;;;;;4936227;29;20036;-35
2023/01/24 12:42:11;;;;;;;2.13;0.88;;;;;;;;;;5021434;28;20045;-35
2023/01/24 12:44:43;;;;;;;2.03;0.60;;;;;;;;;;5035754;28;20030;-34
2023/01/24 12:47:22;;;;;;;1.23;0.70;;;;;;;;;;5035777;28;20557;-35
2023/01/24 12:49:58;;;;;;;2.55;0.77;;;;;;;;;;5035605;28;20513;-35
2023/01/24 12:52:32;;;;;;;1.33;0.60;;;;;;;;;;5035653;28;20022;-35
2023/01/24 12:55:05;;;;;;;0.98;0.57;;;;;;;;;;5035596;28;20203;-35
2023/01/24 12:57:45;;;;;;;1.67;0.82;;;;;;;;;;5035550;28;20029;-35
2023/01/24 13:00:21;;;;;;;1.25;0.70;;;;;;;;;;5035401;28;20030;-35
2023/01/24 13:02:57;;;;;;;1.05;0.60;;;;;;;;;;5035494;28;20028;-35
2023/01/24 13:05:30;;;;;;;1.50;0.60;;;;;;;;;;5035383;28;20022;-35
2023/01/24 13:08:09;;;;;;;2.25;0.90;;;;;;;;;;5035230;28;20030;-35
2023/01/24 13:10:43;;;;;;;0.90;0.55;;;;;;;;;;5035079;28;20115;-35
2023/01/24 13:13:31;;;;;;;2.03;0.73;;;;;;;;;;5035305;28;20053;-35
2023/01/24 13:16:00;;;;;;;1.95;0.50;;;;;;;;;;5035207;28;20033;-35
2023/01/24 13:18:34;;;;;;;0.88;0.47;;;;;;;;;;5035197;28;20060;-35
2023/01/24 13:21:06;;;;;;;1.00;0.60;;;;;;;;;;5035142;28;20099;-35
2023/01/24 13:23:33;;;;;;;0.98;0.57;;;;;;;;;;5034986;28;20037;-35
2023/01/24 13:26:12;;;;;;;1.30;0.68;;;;;;;;;;5034622;28;20037;-35
2023/01/24 13:28:45;;;;;;;3.15;0.60;;;;;;;;;;5034921;28;20032;-36
2023/01/24 13:31:13;;;;;;;2.20;0.70;;;;;;;;;;5034920;28;20471;-35
2023/01/24 13:33:58;;;;;;;2.10;0.60;;;;;;;;;;5034855;28;20423;-35
2023/01/24 13:36:31;;;;;;;1.42;0.80;;;;;;;;;;5034743;28;20037;-35
2023/01/24 13:38:59;;;;;;;2.20;0.50;;;;;;;;;;5034741;28;20104;-36
2023/01/24 13:41:26;;;;;;;1.23;0.57;;;;;;;;;;5034817;28;20033;-35
2023/01/24 13:43:53;;;;;;;0.80;0.60;;;;;;;;;;5034716;28;20043;-35
2023/01/24 13:46:40;;;;;;;0.65;0.40;;;;;;;;;;5034575;28;20021;-35
2023/01/24 13:49:17;;;;;;;0.95;0.50;;;;;;;;;;5034502;28;20028;-35
2023/01/24 13:51:53;;;;;;;3.03;0.60;;;;;;;;;;5034460;28;20052;-35
2023/01/24 13:54:39;;;;;;;1.08;0.70;;;;;;;;;;5034501;28;20491;-35
2023/01/24 13:57:12;;;;;;;1.30;0.50;;;;;;;;;;5034380;28;20042;-35
2023/01/24 13:59:40;;;;;;;1.42;0.60;;;;;;;;;;5034351;28;20027;-35
2023/01/24 14:02:43;;;;;;;2.15;0.60;;;;;;;;;;5034390;28;20076;-35
2023/01/24 14:05:28;;;;;;;1.23;0.60;;;;;;;;;;4934876;29;20426;-36
2023/01/24 14:07:56;;;;;;;1.85;0.60;;;;;;;;;;5027171;28;20053;-35
2023/01/24 14:10:37;;;;;;;1.13;0.70;;;;;;;;;;5033916;28;20049;-35
2023/01/24 14:13:04;;;;;;;1.33;0.65;;;;;;;;;;5034098;28;20017;-35
2023/01/24 14:15:39;;;;;;;1.48;0.60;;;;;;;;;;5034046;28;20076;-35
2023/01/24 14:18:24;;;;;;;0.80;0.40;;;;;;;;;;5034087;28;20060;-35
2023/01/24 14:20:51;;;;;;;1.60;0.60;;;;;;;;;;5033985;28;20044;-36
2023/01/24 14:23:24;;;;;;;0.80;0.60;;;;;;;;;;5033890;28;20052;-35
2023/01/24 14:25:50;;;;;;;;;;;;;;;;;;5034213;28;20403;-35
2023/01/24 14:28:17;;;;;;;2.13;0.65;;;;;;;;;;5033728;28;19917;-35
2023/01/24 14:30:47;;;;;;;1.35;0.60;;;;;;;;;;5033695;28;20056;-35
2023/01/24 14:33:21;;;;;;;1.35;0.65;;;;;;;;;;5033665;28;20033;-35
2023/01/24 14:36:08;;;;;;;1.25;0.50;;;;;;;;;;5033721;28;20021;-35
2023/01/24 14:38:35;;;;;;;0.98;0.50;;;;;;;;;;5032945;28;20079;-35
2023/01/24 14:41:01;;;;;;;1.17;0.70;;;;;;;;;;5033655;28;20030;-35
2023/01/24 14:43:34;;;;;;;0.65;0.40;;;;;;;;;;5033472;28;20088;-35
2023/01/24 14:46:16;;;;;;;0.85;0.60;;;;;;;;;;5033488;28;20438;-35
2023/01/24 14:48:43;;;;;;;0.95;0.65;;;;;;;;;;5033461;28;20041;-35
2023/01/24 14:51:15;;;;;;;0.95;0.60;;;;;;;;;;5033586;28;20041;-35
2023/01/24 14:53:47;;;;;;;1.33;0.73;;;;;;;;;;5033411;28;20045;-35
2023/01/24 14:56:14;;;;;;;1.88;0.40;;;;;;;;;;5033336;28;20038;-35
2023/01/24 14:58:42;;;;;;;1.77;0.57;;;;;;;;;;5033261;28;20083;-35
2023/01/24 15:01:27;;;;;;;1.10;0.60;;;;;;;;;;5033320;28;20503;-35
2023/01/24 15:03:57;;;;;;;1.30;0.60;;;;;;;;;;5033144;28;20026;-35
2023/01/24 15:06:25;;;;;;;0.55;0.47;;;;;;;;;;5033060;28;20447;-35
2023/01/24 15:08:59;;;;;;;1.00;0.60;;;;;;;;;;5033003;28;20021;-36
2023/01/24 15:11:29;;;;;;;1.05;0.50;;;;;;;;;;5032997;28;20053;-35
2023/01/24 15:14:06;;;;;;;1.35;0.60;;;;;;;;;;5033008;28;20037;-35
2023/01/24 15:16:38;;;;;;;1.33;0.60;;;;;;;;;;5033263;28;20055;-35
2023/01/24 15:19:05;;;;;;;0.40;0.40;;;;;;;;;;5032805;28;20032;-35
2023/01/24 15:21:34;;;;;;;0.88;0.60;;;;;;;;;;5032943;28;20025;-35
2023/01/24 15:24:01;;;;;;;0.68;0.50;;;;;;;;;;5032926;28;20080;-35
2023/01/24 15:26:28;;;;;;;0.70;0.50;;;;;;;;;;5032783;28;20503;-35
2023/01/24 15:28:55;;;;;;;2.22;0.65;;;;;;;;;;5032728;28;20120;-35
2023/01/24 15:31:23;;;;;;;0.65;0.40;;;;;;;;;;5032854;28;20424;-35
2023/01/24 15:33:55;;;;;;;1.00;0.60;;;;;;;;;;5032745;28;20033;-35
2023/01/24 15:36:30;;;;;;;0.73;0.50;;;;;;;;;;5032776;28;20022;-35